Terminal Aerodrome Forecast
Issued by NWS Omaha/Valley, NE

Home | Current Version | Previous Version | Graphics & Text | Print | Product List | Glossary On
Versions: 1 2 3 4 5 6 7 8 9 10 11 12 13 14 15 16 17 18 19 20 21 22 23 24 25 26 27 28 29 30 31 32 33 34 35 36 37 38
000
FTUS43 KOAX 242320
TAFOFK
TAF
KOFK 242320Z 2500/2524 27011KT P6SM BKN080
     FM250200 29018G30KT P6SM OVC040
     FM250400 32025G34KT P6SM OVC030
      TEMPO 2505/2507 5SM -SHRA OVC020
     FM250800 33023G32KT 4SM -SHRA BKN015 OVC025
      TEMPO 2513/2515 3SM -SHSN OVC015
     FM251600 34018G26KT P6SM OVC015
     FM252200 35009KT P6SM BKN050=

USA.gov is the U.S. government's official web portal to all federal, state and local government web resources and services.